sensor_id;sensor_type;location;lat;lon;timestamp;P1;durP1;ratioP1;P2;durP2;ratioP2
6561;SDS011;3314;50.890;4.722;2022-07-06T00:01:07;8.7;;;1.5;;
6561;SDS011;3314;50.890;4.722;2022-07-06T00:03:07;9.0;;;1.2;;
6561;SDS011;3314;50.890;4.722;2022-07-06T00:05:07;8.4;;;1.6;;
6561;SDS011;3314;50.890;4.722;2022-07-06T00:07:07;6.3;;;1.3;;
6561;SDS011;3314;50.890;4.722;2022-07-06T00:09:07;6.9;;;1.0;;
6561;SDS011;3314;50.890;4.722;2022-07-06T00:11:07;10.3;;;1.7;;
6561;SDS011;3314;50.890;4.722;2022-07-06T00:13:06;7.6;;;1.4;;
6561;SDS011;3314;50.890;4.722;2022-07-06T00:15:06;7.1;;;1.6;;
6561;SDS011;3314;50.890;4.722;2022-07-06T00:17:06;7.7;;;1.1;;
6561;SDS011;3314;50.890;4.722;2022-07-06T00:19:06;7.1;;;1.1;;
6561;SDS011;3314;50.890;4.722;2022-07-06T00:21:06;7.8;;;1.0;;
6561;SDS011;3314;50.890;4.722;2022-07-06T00:23:05;7.3;;;1.2;;
6561;SDS011;3314;50.890;4.722;2022-07-06T00:25:05;7.3;;;1.2;;
6561;SDS011;3314;50.890;4.722;2022-07-06T00:27:05;8.3;;;1.8;;
6561;SDS011;3314;50.890;4.722;2022-07-06T00:29:05;6.4;;;1.2;;
6561;SDS011;3314;50.890;4.722;2022-07-06T00:31:06;7.8;;;1.1;;
6561;SDS011;3314;50.890;4.722;2022-07-06T00:33:05;6.5;;;1.0;;
6561;SDS011;3314;50.890;4.722;2022-07-06T00:35:06;10.9;;;1.9;;
6561;SDS011;3314;50.890;4.722;2022-07-06T00:37:06;9.4;;;1.2;;
6561;SDS011;3314;50.890;4.722;2022-07-06T00:39:05;7.0;;;1.4;;
6561;SDS011;3314;50.890;4.722;2022-07-06T00:41:05;7.8;;;1.3;;
6561;SDS011;3314;50.890;4.722;2022-07-06T00:43:05;5.8;;;1.1;;
6561;SDS011;3314;50.890;4.722;2022-07-06T00:45:05;7.0;;;1.5;;
6561;SDS011;3314;50.890;4.722;2022-07-06T00:47:06;6.0;;;1.1;;
6561;SDS011;3314;50.890;4.722;2022-07-06T00:49:05;7.4;;;1.3;;
6561;SDS011;3314;50.890;4.722;2022-07-06T00:51:05;6.4;;;1.0;;
6561;SDS011;3314;50.890;4.722;2022-07-06T00:53:05;7.5;;;1.5;;
6561;SDS011;3314;50.890;4.722;2022-07-06T00:55:05;7.4;;;1.5;;
6561;SDS011;3314;50.890;4.722;2022-07-06T00:57:05;12.2;;;2.2;;
6561;SDS011;3314;50.890;4.722;2022-07-06T00:59:05;8.8;;;1.1;;
6561;SDS011;3314;50.890;4.722;2022-07-06T01:01:05;7.3;;;1.3;;
6561;SDS011;3314;50.890;4.722;2022-07-06T01:03:04;7.5;;;1.2;;
6561;SDS011;3314;50.890;4.722;2022-07-06T01:05:04;7.2;;;1.5;;
6561;SDS011;3314;50.890;4.722;2022-07-06T01:07:05;6.7;;;1.2;;
6561;SDS011;3314;50.890;4.722;2022-07-06T01:09:04;6.7;;;1.4;;
6561;SDS011;3314;50.890;4.722;2022-07-06T01:11:04;7.9;;;1.4;;
6561;SDS011;3314;50.890;4.722;2022-07-06T01:13:04;7.0;;;1.3;;
6561;SDS011;3314;50.890;4.722;2022-07-06T01:15:04;8.5;;;2.2;;
6561;SDS011;3314;50.890;4.722;2022-07-06T01:17:04;7.3;;;1.3;;
6561;SDS011;3314;50.890;4.722;2022-07-06T01:19:04;8.0;;;1.7;;
6561;SDS011;3314;50.890;4.722;2022-07-06T01:21:06;10.3;;;1.6;;
6561;SDS011;3314;50.890;4.722;2022-07-06T01:23:06;6.9;;;1.4;;
6561;SDS011;3314;50.890;4.722;2022-07-06T01:25:06;7.5;;;1.3;;
6561;SDS011;3314;50.890;4.722;2022-07-06T01:27:06;7.0;;;1.4;;
6561;SDS011;3314;50.890;4.722;2022-07-06T01:29:06;8.5;;;1.6;;
6561;SDS011;3314;50.890;4.722;2022-07-06T01:31:05;9.4;;;1.4;;
6561;SDS011;3314;50.890;4.722;2022-07-06T01:33:00;7.9;;;1.5;;
6561;SDS011;3314;50.890;4.722;2022-07-06T01:35:00;8.5;;;1.4;;
6561;SDS011;3314;50.890;4.722;2022-07-06T01:36:59;7.1;;;1.4;;
6561;SDS011;3314;50.890;4.722;2022-07-06T01:38:59;8.9;;;1.5;;
6561;SDS011;3314;50.890;4.722;2022-07-06T01:40:59;7.7;;;1.4;;
6561;SDS011;3314;50.890;4.722;2022-07-06T01:43:03;6.6;;;1.0;;
6561;SDS011;3314;50.890;4.722;2022-07-06T01:45:04;6.9;;;1.2;;
6561;SDS011;3314;50.890;4.722;2022-07-06T01:47:04;6.4;;;1.2;;
6561;SDS011;3314;50.890;4.722;2022-07-06T01:49:04;7.3;;;1.5;;
6561;SDS011;3314;50.890;4.722;2022-07-06T01:51:04;6.1;;;1.3;;
6561;SDS011;3314;50.890;4.722;2022-07-06T01:53:04;6.3;;;1.3;;
6561;SDS011;3314;50.890;4.722;2022-07-06T01:55:04;8.8;;;1.6;;
6561;SDS011;3314;50.890;4.722;2022-07-06T01:57:04;6.9;;;1.3;;
6561;SDS011;3314;50.890;4.722;2022-07-06T01:59:04;8.9;;;1.5;;
6561;SDS011;3314;50.890;4.722;2022-07-06T02:01:06;8.1;;;1.5;;
6561;SDS011;3314;50.890;4.722;2022-07-06T02:02:54;13.6;;;1.5;;
6561;SDS011;3314;50.890;4.722;2022-07-06T02:04:54;7.9;;;1.5;;
6561;SDS011;3314;50.890;4.722;2022-07-06T02:06:54;7.4;;;1.6;;
6561;SDS011;3314;50.890;4.722;2022-07-06T02:08:54;9.0;;;1.4;;
6561;SDS011;3314;50.890;4.722;2022-07-06T02:10:54;6.7;;;1.5;;
6561;SDS011;3314;50.890;4.722;2022-07-06T02:12:53;7.9;;;1.9;;
6561;SDS011;3314;50.890;4.722;2022-07-06T02:14:53;6.3;;;1.3;;
6561;SDS011;3314;50.890;4.722;2022-07-06T02:16:53;8.3;;;1.4;;
6561;SDS011;3314;50.890;4.722;2022-07-06T02:18:52;6.9;;;1.6;;
6561;SDS011;3314;50.890;4.722;2022-07-06T02:20:52;10.9;;;1.9;;
6561;SDS011;3314;50.890;4.722;2022-07-06T02:22:52;6.4;;;1.2;;
6561;SDS011;3314;50.890;4.722;2022-07-06T02:24:51;8.5;;;1.5;;
6561;SDS011;3314;50.890;4.722;2022-07-06T02:26:51;8.1;;;1.3;;
6561;SDS011;3314;50.890;4.722;2022-07-06T02:28:51;7.4;;;1.3;;
6561;SDS011;3314;50.890;4.722;2022-07-06T02:30:51;7.3;;;1.6;;
6561;SDS011;3314;50.890;4.722;2022-07-06T02:32:51;9.9;;;1.8;;
6561;SDS011;3314;50.890;4.722;2022-07-06T02:34:50;8.1;;;1.6;;
6561;SDS011;3314;50.890;4.722;2022-07-06T02:36:50;7.4;;;1.7;;
6561;SDS011;3314;50.890;4.722;2022-07-06T02:38:50;7.8;;;1.4;;
6561;SDS011;3314;50.890;4.722;2022-07-06T02:40:50;8.4;;;1.4;;
6561;SDS011;3314;50.890;4.722;2022-07-06T02:42:49;7.0;;;1.7;;
6561;SDS011;3314;50.890;4.722;2022-07-06T02:44:49;8.0;;;1.5;;
6561;SDS011;3314;50.890;4.722;2022-07-06T02:46:49;8.0;;;1.8;;
6561;SDS011;3314;50.890;4.722;2022-07-06T03:01:18;6.8;;;1.6;;
6561;SDS011;3314;50.890;4.722;2022-07-06T03:01:29;7.5;;;2.1;;
6561;SDS011;3314;50.890;4.722;2022-07-06T03:01:41;8.4;;;2.3;;
6561;SDS011;3314;50.890;4.722;2022-07-06T03:01:52;7.6;;;1.3;;
6561;SDS011;3314;50.890;4.722;2022-07-06T03:02:03;7.8;;;1.6;;
6561;SDS011;3314;50.890;4.722;2022-07-06T03:02:51;7.5;;;1.7;;
6561;SDS011;3314;50.890;4.722;2022-07-06T03:04:51;6.8;;;1.5;;
6561;SDS011;3314;50.890;4.722;2022-07-06T03:06:50;8.3;;;1.7;;
6561;SDS011;3314;50.890;4.722;2022-07-06T03:08:50;7.8;;;1.6;;
6561;SDS011;3314;50.890;4.722;2022-07-06T03:10:50;7.0;;;1.6;;
6561;SDS011;3314;50.890;4.722;2022-07-06T03:12:49;6.9;;;1.5;;
6561;SDS011;3314;50.890;4.722;2022-07-06T03:14:49;8.7;;;1.5;;
6561;SDS011;3314;50.890;4.722;2022-07-06T03:16:48;8.6;;;1.8;;
6561;SDS011;3314;50.890;4.722;2022-07-06T03:18:48;6.6;;;1.3;;
6561;SDS011;3314;50.890;4.722;2022-07-06T03:20:48;8.2;;;1.6;;
6561;SDS011;3314;50.890;4.722;2022-07-06T03:22:48;9.8;;;1.5;;
6561;SDS011;3314;50.890;4.722;2022-07-06T03:24:47;9.4;;;2.0;;
6561;SDS011;3314;50.890;4.722;2022-07-06T03:26:47;8.2;;;1.9;;
6561;SDS011;3314;50.890;4.722;2022-07-06T03:28:47;8.1;;;2.2;;
6561;SDS011;3314;50.890;4.722;2022-07-06T03:30:46;7.9;;;1.8;;
6561;SDS011;3314;50.890;4.722;2022-07-06T03:32:46;7.4;;;1.5;;
6561;SDS011;3314;50.890;4.722;2022-07-06T03:34:45;7.9;;;1.4;;
6561;SDS011;3314;50.890;4.722;2022-07-06T03:36:45;13.9;;;2.7;;
6561;SDS011;3314;50.890;4.722;2022-07-06T03:38:45;8.5;;;1.5;;
6561;SDS011;3314;50.890;4.722;2022-07-06T03:40:44;7.2;;;1.3;;
6561;SDS011;3314;50.890;4.722;2022-07-06T03:42:44;11.4;;;1.9;;
6561;SDS011;3314;50.890;4.722;2022-07-06T03:44:44;8.4;;;1.3;;
6561;SDS011;3314;50.890;4.722;2022-07-06T03:46:43;7.4;;;1.9;;
6561;SDS011;3314;50.890;4.722;2022-07-06T03:48:43;7.1;;;1.7;;
6561;SDS011;3314;50.890;4.722;2022-07-06T03:50:43;8.3;;;1.9;;
6561;SDS011;3314;50.890;4.722;2022-07-06T03:52:42;10.5;;;1.5;;
6561;SDS011;3314;50.890;4.722;2022-07-06T03:54:42;8.0;;;1.7;;
6561;SDS011;3314;50.890;4.722;2022-07-06T03:56:42;9.9;;;1.9;;
6561;SDS011;3314;50.890;4.722;2022-07-06T03:58:41;7.9;;;2.2;;
6561;SDS011;3314;50.890;4.722;2022-07-06T04:00:41;9.6;;;1.7;;
6561;SDS011;3314;50.890;4.722;2022-07-06T04:02:41;7.0;;;1.7;;
6561;SDS011;3314;50.890;4.722;2022-07-06T04:04:40;8.4;;;2.0;;
6561;SDS011;3314;50.890;4.722;2022-07-06T04:06:40;7.3;;;2.4;;
6561;SDS011;3314;50.890;4.722;2022-07-06T04:08:40;8.0;;;1.3;;
6561;SDS011;3314;50.890;4.722;2022-07-06T04:10:40;8.9;;;1.7;;
6561;SDS011;3314;50.890;4.722;2022-07-06T04:12:40;7.2;;;1.4;;
6561;SDS011;3314;50.890;4.722;2022-07-06T04:14:40;7.7;;;1.6;;
6561;SDS011;3314;50.890;4.722;2022-07-06T04:16:39;6.7;;;1.8;;
6561;SDS011;3314;50.890;4.722;2022-07-06T04:18:39;7.2;;;2.0;;
6561;SDS011;3314;50.890;4.722;2022-07-06T04:20:38;8.7;;;1.6;;
6561;SDS011;3314;50.890;4.722;2022-07-06T04:22:39;7.9;;;1.8;;
6561;SDS011;3314;50.890;4.722;2022-07-06T04:24:39;9.7;;;2.0;;
6561;SDS011;3314;50.890;4.722;2022-07-06T04:26:38;7.2;;;1.7;;
6561;SDS011;3314;50.890;4.722;2022-07-06T04:28:38;10.0;;;1.7;;
6561;SDS011;3314;50.890;4.722;2022-07-06T04:30:37;12.7;;;2.0;;
6561;SDS011;3314;50.890;4.722;2022-07-06T04:32:37;9.4;;;1.6;;
6561;SDS011;3314;50.890;4.722;2022-07-06T04:34:37;8.3;;;2.0;;
6561;SDS011;3314;50.890;4.722;2022-07-06T04:36:37;8.1;;;2.2;;
6561;SDS011;3314;50.890;4.722;2022-07-06T04:38:36;9.4;;;1.8;;
6561;SDS011;3314;50.890;4.722;2022-07-06T04:40:36;8.4;;;1.7;;
6561;SDS011;3314;50.890;4.722;2022-07-06T04:42:37;8.2;;;1.9;;
6561;SDS011;3314;50.890;4.722;2022-07-06T04:44:36;8.8;;;2.4;;
6561;SDS011;3314;50.890;4.722;2022-07-06T04:46:36;11.2;;;1.9;;
6561;SDS011;3314;50.890;4.722;2022-07-06T04:48:39;7.3;;;1.7;;
6561;SDS011;3314;50.890;4.722;2022-07-06T04:50:39;12.9;;;2.6;;
6561;SDS011;3314;50.890;4.722;2022-07-06T04:52:38;10.2;;;2.2;;
6561;SDS011;3314;50.890;4.722;2022-07-06T04:54:38;8.3;;;2.3;;
6561;SDS011;3314;50.890;4.722;2022-07-06T04:56:38;8.9;;;2.4;;
6561;SDS011;3314;50.890;4.722;2022-07-06T04:58:37;13.1;;;2.4;;
6561;SDS011;3314;50.890;4.722;2022-07-06T05:00:37;9.1;;;2.3;;
6561;SDS011;3314;50.890;4.722;2022-07-06T05:02:37;9.7;;;2.2;;
6561;SDS011;3314;50.890;4.722;2022-07-06T05:04:37;9.1;;;2.1;;
6561;SDS011;3314;50.890;4.722;2022-07-06T05:06:36;8.3;;;2.2;;
6561;SDS011;3314;50.890;4.722;2022-07-06T05:08:36;8.1;;;2.3;;
6561;SDS011;3314;50.890;4.722;2022-07-06T05:10:36;9.1;;;2.1;;
6561;SDS011;3314;50.890;4.722;2022-07-06T05:12:35;9.6;;;2.6;;
6561;SDS011;3314;50.890;4.722;2022-07-06T05:14:36;8.6;;;2.4;;
6561;SDS011;3314;50.890;4.722;2022-07-06T05:16:36;8.0;;;2.3;;
6561;SDS011;3314;50.890;4.722;2022-07-06T05:18:35;7.7;;;2.2;;
6561;SDS011;3314;50.890;4.722;2022-07-06T05:20:35;9.3;;;2.7;;
6561;SDS011;3314;50.890;4.722;2022-07-06T05:22:35;9.8;;;2.7;;
6561;SDS011;3314;50.890;4.722;2022-07-06T05:24:34;10.0;;;2.5;;
6561;SDS011;3314;50.890;4.722;2022-07-06T05:26:34;8.5;;;2.2;;
6561;SDS011;3314;50.890;4.722;2022-07-06T05:28:33;9.0;;;2.5;;
6561;SDS011;3314;50.890;4.722;2022-07-06T05:30:33;11.2;;;3.0;;
6561;SDS011;3314;50.890;4.722;2022-07-06T05:32:33;9.0;;;2.6;;
6561;SDS011;3314;50.890;4.722;2022-07-06T05:34:32;12.4;;;2.5;;
6561;SDS011;3314;50.890;4.722;2022-07-06T05:36:32;9.2;;;2.6;;
6561;SDS011;3314;50.890;4.722;2022-07-06T05:38:32;10.8;;;2.8;;
6561;SDS011;3314;50.890;4.722;2022-07-06T05:40:31;10.1;;;2.4;;
6561;SDS011;3314;50.890;4.722;2022-07-06T05:42:31;12.1;;;2.5;;
6561;SDS011;3314;50.890;4.722;2022-07-06T05:44:30;9.4;;;2.6;;
6561;SDS011;3314;50.890;4.722;2022-07-06T05:46:30;8.1;;;2.0;;
6561;SDS011;3314;50.890;4.722;2022-07-06T05:50:42;12.0;;;2.8;;
6561;SDS011;3314;50.890;4.722;2022-07-06T05:50:54;9.5;;;2.7;;
6561;SDS011;3314;50.890;4.722;2022-07-06T05:52:29;9.7;;;2.4;;
6561;SDS011;3314;50.890;4.722;2022-07-06T05:54:29;11.8;;;2.9;;
6561;SDS011;3314;50.890;4.722;2022-07-06T05:56:29;10.9;;;2.7;;
6561;SDS011;3314;50.890;4.722;2022-07-06T05:58:28;9.2;;;3.2;;
6561;SDS011;3314;50.890;4.722;2022-07-06T06:00:28;9.4;;;2.8;;
6561;SDS011;3314;50.890;4.722;2022-07-06T06:02:36;8.9;;;2.4;;
6561;SDS011;3314;50.890;4.722;2022-07-06T06:04:35;13.2;;;3.2;;
6561;SDS011;3314;50.890;4.722;2022-07-06T06:06:35;11.0;;;3.3;;
6561;SDS011;3314;50.890;4.722;2022-07-06T06:08:34;9.5;;;2.6;;
6561;SDS011;3314;50.890;4.722;2022-07-06T06:10:34;10.9;;;3.1;;
6561;SDS011;3314;50.890;4.722;2022-07-06T06:12:34;11.3;;;2.8;;
6561;SDS011;3314;50.890;4.722;2022-07-06T06:14:33;9.5;;;2.8;;
6561;SDS011;3314;50.890;4.722;2022-07-06T06:16:33;10.5;;;2.6;;
6561;SDS011;3314;50.890;4.722;2022-07-06T06:18:33;10.1;;;2.7;;
6561;SDS011;3314;50.890;4.722;2022-07-06T06:20:32;9.3;;;2.8;;
6561;SDS011;3314;50.890;4.722;2022-07-06T06:22:34;9.1;;;3.2;;
6561;SDS011;3314;50.890;4.722;2022-07-06T06:24:31;9.6;;;4.0;;
6561;SDS011;3314;50.890;4.722;2022-07-06T06:26:30;11.2;;;3.3;;
6561;SDS011;3314;50.890;4.722;2022-07-06T06:28:30;10.7;;;2.6;;
6561;SDS011;3314;50.890;4.722;2022-07-06T06:30:30;17.5;;;3.8;;
6561;SDS011;3314;50.890;4.722;2022-07-06T06:32:30;12.7;;;3.5;;
6561;SDS011;3314;50.890;4.722;2022-07-06T06:34:29;10.1;;;3.0;;
6561;SDS011;3314;50.890;4.722;2022-07-06T06:36:29;11.6;;;3.0;;
6561;SDS011;3314;50.890;4.722;2022-07-06T06:38:30;10.1;;;3.1;;
6561;SDS011;3314;50.890;4.722;2022-07-06T06:40:29;24.6;;;3.7;;
6561;SDS011;3314;50.890;4.722;2022-07-06T06:42:29;13.2;;;3.3;;
6561;SDS011;3314;50.890;4.722;2022-07-06T06:44:28;12.5;;;2.8;;
6561;SDS011;3314;50.890;4.722;2022-07-06T06:46:28;10.9;;;3.5;;
6561;SDS011;3314;50.890;4.722;2022-07-06T06:48:28;15.0;;;3.8;;
6561;SDS011;3314;50.890;4.722;2022-07-06T06:50:27;12.6;;;3.0;;
6561;SDS011;3314;50.890;4.722;2022-07-06T06:52:27;11.7;;;2.6;;
6561;SDS011;3314;50.890;4.722;2022-07-06T06:54:27;13.8;;;2.9;;
6561;SDS011;3314;50.890;4.722;2022-07-06T06:56:26;13.5;;;3.3;;
6561;SDS011;3314;50.890;4.722;2022-07-06T06:58:26;10.2;;;2.9;;
6561;SDS011;3314;50.890;4.722;2022-07-06T07:00:26;10.4;;;2.4;;
6561;SDS011;3314;50.890;4.722;2022-07-06T07:02:25;13.2;;;3.1;;
6561;SDS011;3314;50.890;4.722;2022-07-06T07:04:25;16.8;;;3.6;;
6561;SDS011;3314;50.890;4.722;2022-07-06T07:06:25;13.1;;;2.5;;
6561;SDS011;3314;50.890;4.722;2022-07-06T07:08:24;13.2;;;2.6;;
6561;SDS011;3314;50.890;4.722;2022-07-06T07:10:24;10.3;;;2.5;;
6561;SDS011;3314;50.890;4.722;2022-07-06T07:12:24;10.3;;;2.2;;
6561;SDS011;3314;50.890;4.722;2022-07-06T07:14:24;19.4;;;2.6;;
6561;SDS011;3314;50.890;4.722;2022-07-06T07:16:24;11.6;;;1.9;;
6561;SDS011;3314;50.890;4.722;2022-07-06T07:18:24;10.5;;;1.7;;
6561;SDS011;3314;50.890;4.722;2022-07-06T07:20:24;10.8;;;1.9;;
6561;SDS011;3314;50.890;4.722;2022-07-06T07:22:23;8.5;;;1.8;;
6561;SDS011;3314;50.890;4.722;2022-07-06T07:24:23;7.3;;;1.7;;
6561;SDS011;3314;50.890;4.722;2022-07-06T07:26:23;9.6;;;1.8;;
6561;SDS011;3314;50.890;4.722;2022-07-06T07:28:22;9.9;;;1.6;;
6561;SDS011;3314;50.890;4.722;2022-07-06T07:30:22;11.2;;;1.8;;
6561;SDS011;3314;50.890;4.722;2022-07-06T07:32:21;8.7;;;1.2;;
6561;SDS011;3314;50.890;4.722;2022-07-06T07:34:21;7.5;;;1.0;;
6561;SDS011;3314;50.890;4.722;2022-07-06T07:36:21;6.8;;;1.1;;
6561;SDS011;3314;50.890;4.722;2022-07-06T07:38:20;10.1;;;1.3;;
6561;SDS011;3314;50.890;4.722;2022-07-06T07:40:20;8.2;;;1.0;;
6561;SDS011;3314;50.890;4.722;2022-07-06T07:42:20;6.0;;;0.9;;
6561;SDS011;3314;50.890;4.722;2022-07-06T07:44:19;5.9;;;0.8;;
6561;SDS011;3314;50.890;4.722;2022-07-06T07:46:19;7.4;;;0.9;;
6561;SDS011;3314;50.890;4.722;2022-07-06T07:48:18;6.5;;;0.7;;
6561;SDS011;3314;50.890;4.722;2022-07-06T07:50:18;6.5;;;0.9;;
6561;SDS011;3314;50.890;4.722;2022-07-06T07:52:18;9.2;;;1.1;;
6561;SDS011;3314;50.890;4.722;2022-07-06T07:54:18;7.1;;;1.2;;
6561;SDS011;3314;50.890;4.722;2022-07-06T07:56:18;7.9;;;1.1;;
6561;SDS011;3314;50.890;4.722;2022-07-06T07:58:18;8.0;;;1.0;;
6561;SDS011;3314;50.890;4.722;2022-07-06T08:00:18;8.8;;;1.5;;
6561;SDS011;3314;50.890;4.722;2022-07-06T08:02:17;6.2;;;1.3;;
6561;SDS011;3314;50.890;4.722;2022-07-06T08:04:17;7.6;;;1.0;;
6561;SDS011;3314;50.890;4.722;2022-07-06T08:06:17;8.0;;;1.1;;
6561;SDS011;3314;50.890;4.722;2022-07-06T08:08:17;8.4;;;1.6;;
6561;SDS011;3314;50.890;4.722;2022-07-06T08:10:16;9.4;;;1.3;;
6561;SDS011;3314;50.890;4.722;2022-07-06T08:12:16;9.9;;;1.2;;
6561;SDS011;3314;50.890;4.722;2022-07-06T08:14:17;6.0;;;0.8;;
6561;SDS011;3314;50.890;4.722;2022-07-06T08:16:17;7.9;;;1.2;;
6561;SDS011;3314;50.890;4.722;2022-07-06T08:18:16;9.5;;;1.5;;
6561;SDS011;3314;50.890;4.722;2022-07-06T08:20:16;7.0;;;0.9;;
6561;SDS011;3314;50.890;4.722;2022-07-06T08:22:16;6.6;;;0.7;;
6561;SDS011;3314;50.890;4.722;2022-07-06T08:24:15;9.8;;;1.0;;
6561;SDS011;3314;50.890;4.722;2022-07-06T08:26:15;8.5;;;1.4;;
6561;SDS011;3314;50.890;4.722;2022-07-06T08:28:15;8.1;;;1.2;;
6561;SDS011;3314;50.890;4.722;2022-07-06T08:30:14;11.4;;;1.1;;
6561;SDS011;3314;50.890;4.722;2022-07-06T08:32:14;9.3;;;0.9;;
6561;SDS011;3314;50.890;4.722;2022-07-06T08:34:14;7.1;;;0.8;;
6561;SDS011;3314;50.890;4.722;2022-07-06T08:36:14;7.4;;;1.0;;
6561;SDS011;3314;50.890;4.722;2022-07-06T08:38:14;9.5;;;1.3;;
6561;SDS011;3314;50.890;4.722;2022-07-06T08:40:13;8.5;;;1.3;;
6561;SDS011;3314;50.890;4.722;2022-07-06T08:42:13;7.6;;;1.2;;
6561;SDS011;3314;50.890;4.722;2022-07-06T08:44:15;12.5;;;1.2;;
6561;SDS011;3314;50.890;4.722;2022-07-06T08:46:15;7.1;;;1.1;;
6561;SDS011;3314;50.890;4.722;2022-07-06T08:48:15;7.7;;;0.8;;
6561;SDS011;3314;50.890;4.722;2022-07-06T08:50:16;6.1;;;0.9;;
6561;SDS011;3314;50.890;4.722;2022-07-06T08:52:16;10.2;;;1.2;;
6561;SDS011;3314;50.890;4.722;2022-07-06T08:54:15;6.2;;;1.1;;
6561;SDS011;3314;50.890;4.722;2022-07-06T08:56:15;6.2;;;1.2;;
6561;SDS011;3314;50.890;4.722;2022-07-06T08:58:15;9.7;;;1.4;;
6561;SDS011;3314;50.890;4.722;2022-07-06T09:00:15;8.8;;;1.2;;
6561;SDS011;3314;50.890;4.722;2022-07-06T09:02:14;7.1;;;1.0;;
6561;SDS011;3314;50.890;4.722;2022-07-06T09:04:15;9.6;;;1.2;;
6561;SDS011;3314;50.890;4.722;2022-07-06T09:06:16;14.1;;;1.4;;
6561;SDS011;3314;50.890;4.722;2022-07-06T09:08:15;7.7;;;1.1;;
6561;SDS011;3314;50.890;4.722;2022-07-06T09:10:17;8.8;;;1.1;;
6561;SDS011;3314;50.890;4.722;2022-07-06T09:12:17;6.7;;;1.0;;
6561;SDS011;3314;50.890;4.722;2022-07-06T09:14:17;8.2;;;0.9;;
6561;SDS011;3314;50.890;4.722;2022-07-06T09:16:17;12.1;;;1.5;;
6561;SDS011;3314;50.890;4.722;2022-07-06T09:18:17;10.3;;;1.2;;
6561;SDS011;3314;50.890;4.722;2022-07-06T09:20:17;9.0;;;1.0;;
6561;SDS011;3314;50.890;4.722;2022-07-06T09:22:25;9.0;;;1.2;;
6561;SDS011;3314;50.890;4.722;2022-07-06T09:24:13;7.7;;;1.2;;
6561;SDS011;3314;50.890;4.722;2022-07-06T09:26:12;12.1;;;1.2;;
6561;SDS011;3314;50.890;4.722;2022-07-06T09:28:12;8.2;;;1.0;;
6561;SDS011;3314;50.890;4.722;2022-07-06T09:30:12;8.2;;;1.1;;
6561;SDS011;3314;50.890;4.722;2022-07-06T09:32:12;8.1;;;1.3;;
6561;SDS011;3314;50.890;4.722;2022-07-06T09:34:10;8.3;;;1.1;;
6561;SDS011;3314;50.890;4.722;2022-07-06T09:36:10;8.8;;;1.2;;
6561;SDS011;3314;50.890;4.722;2022-07-06T09:38:10;11.1;;;1.1;;
6561;SDS011;3314;50.890;4.722;2022-07-06T09:40:15;8.2;;;1.7;;
6561;SDS011;3314;50.890;4.722;2022-07-06T09:42:15;9.2;;;1.1;;
6561;SDS011;3314;50.890;4.722;2022-07-06T09:44:18;6.7;;;1.1;;
6561;SDS011;3314;50.890;4.722;2022-07-06T09:46:09;10.4;;;1.5;;
6561;SDS011;3314;50.890;4.722;2022-07-06T09:48:09;14.3;;;1.5;;
6561;SDS011;3314;50.890;4.722;2022-07-06T09:50:09;7.1;;;1.0;;
6561;SDS011;3314;50.890;4.722;2022-07-06T09:52:09;10.8;;;1.3;;
6561;SDS011;3314;50.890;4.722;2022-07-06T09:54:09;6.6;;;1.0;;
6561;SDS011;3314;50.890;4.722;2022-07-06T09:56:09;7.2;;;1.3;;
6561;SDS011;3314;50.890;4.722;2022-07-06T09:58:09;8.1;;;1.7;;
6561;SDS011;3314;50.890;4.722;2022-07-06T10:00:09;7.2;;;1.4;;
6561;SDS011;3314;50.890;4.722;2022-07-06T10:02:14;8.2;;;1.1;;
6561;SDS011;3314;50.890;4.722;2022-07-06T10:04:13;6.0;;;1.0;;
6561;SDS011;3314;50.890;4.722;2022-07-06T10:06:13;6.9;;;1.4;;
6561;SDS011;3314;50.890;4.722;2022-07-06T10:08:13;7.1;;;1.1;;
6561;SDS011;3314;50.890;4.722;2022-07-06T10:10:13;12.1;;;1.4;;
6561;SDS011;3314;50.890;4.722;2022-07-06T10:12:13;9.3;;;1.1;;
6561;SDS011;3314;50.890;4.722;2022-07-06T10:14:16;6.7;;;0.9;;
6561;SDS011;3314;50.890;4.722;2022-07-06T10:16:06;10.1;;;1.8;;
6561;SDS011;3314;50.890;4.722;2022-07-06T10:18:07;6.3;;;1.0;;
6561;SDS011;3314;50.890;4.722;2022-07-06T10:20:07;8.4;;;1.2;;
6561;SDS011;3314;50.890;4.722;2022-07-06T10:22:07;7.5;;;1.1;;
6561;SDS011;3314;50.890;4.722;2022-07-06T10:24:08;7.3;;;0.9;;
6561;SDS011;3314;50.890;4.722;2022-07-06T10:26:08;8.5;;;1.0;;
6561;SDS011;3314;50.890;4.722;2022-07-06T10:28:15;6.8;;;1.2;;
6561;SDS011;3314;50.890;4.722;2022-07-06T10:30:06;11.6;;;1.2;;
6561;SDS011;3314;50.890;4.722;2022-07-06T10:32:06;9.1;;;1.2;;
6561;SDS011;3314;50.890;4.722;2022-07-06T10:34:07;7.0;;;1.0;;
6561;SDS011;3314;50.890;4.722;2022-07-06T10:36:08;10.3;;;1.4;;
6561;SDS011;3314;50.890;4.722;2022-07-06T10:38:08;9.2;;;1.1;;
6561;SDS011;3314;50.890;4.722;2022-07-06T10:41:13;7.5;;;1.1;;
6561;SDS011;3314;50.890;4.722;2022-07-06T10:42:26;7.5;;;1.1;;
6561;SDS011;3314;50.890;4.722;2022-07-06T10:44:15;7.3;;;1.1;;
6561;SDS011;3314;50.890;4.722;2022-07-06T10:46:06;8.2;;;1.3;;
6561;SDS011;3314;50.890;4.722;2022-07-06T10:48:15;12.1;;;1.2;;
6561;SDS011;3314;50.890;4.722;2022-07-06T10:50:04;7.3;;;1.4;;
6561;SDS011;3314;50.890;4.722;2022-07-06T10:52:04;8.0;;;1.2;;
6561;SDS011;3314;50.890;4.722;2022-07-06T10:54:04;12.1;;;1.4;;
6561;SDS011;3314;50.890;4.722;2022-07-06T10:56:05;6.9;;;1.1;;
6561;SDS011;3314;50.890;4.722;2022-07-06T10:58:06;9.2;;;0.9;;
6561;SDS011;3314;50.890;4.722;2022-07-06T11:00:06;7.5;;;1.2;;
6561;SDS011;3314;50.890;4.722;2022-07-06T11:02:14;10.0;;;1.1;;
6561;SDS011;3314;50.890;4.722;2022-07-06T11:04:05;8.5;;;1.2;;
6561;SDS011;3314;50.890;4.722;2022-07-06T11:06:06;6.0;;;0.8;;
6561;SDS011;3314;50.890;4.722;2022-07-06T11:08:08;9.8;;;0.9;;
6561;SDS011;3314;50.890;4.722;2022-07-06T11:10:08;7.8;;;0.9;;
6561;SDS011;3314;50.890;4.722;2022-07-06T11:12:15;7.8;;;1.0;;
6561;SDS011;3314;50.890;4.722;2022-07-06T11:14:04;8.4;;;1.1;;
6561;SDS011;3314;50.890;4.722;2022-07-06T11:16:04;9.1;;;1.1;;
6561;SDS011;3314;50.890;4.722;2022-07-06T11:18:11;8.9;;;1.3;;
6561;SDS011;3314;50.890;4.722;2022-07-06T11:20:11;7.9;;;1.2;;
6561;SDS011;3314;50.890;4.722;2022-07-06T11:22:11;8.6;;;1.2;;
6561;SDS011;3314;50.890;4.722;2022-07-06T11:24:03;7.1;;;1.1;;
6561;SDS011;3314;50.890;4.722;2022-07-06T11:26:03;6.8;;;1.0;;
6561;SDS011;3314;50.890;4.722;2022-07-06T11:28:03;10.0;;;1.4;;
6561;SDS011;3314;50.890;4.722;2022-07-06T11:30:03;11.0;;;1.4;;
6561;SDS011;3314;50.890;4.722;2022-07-06T11:32:05;7.9;;;1.8;;
6561;SDS011;3314;50.890;4.722;2022-07-06T11:34:05;8.1;;;1.2;;
6561;SDS011;3314;50.890;4.722;2022-07-06T11:36:13;6.2;;;1.1;;
6561;SDS011;3314;50.890;4.722;2022-07-06T11:38:17;7.7;;;1.2;;
6561;SDS011;3314;50.890;4.722;2022-07-06T11:40:06;8.1;;;1.1;;
6561;SDS011;3314;50.890;4.722;2022-07-06T11:42:06;7.1;;;1.1;;
6561;SDS011;3314;50.890;4.722;2022-07-06T11:44:06;7.7;;;1.2;;
6561;SDS011;3314;50.890;4.722;2022-07-06T11:46:06;11.1;;;2.0;;
6561;SDS011;3314;50.890;4.722;2022-07-06T11:48:09;9.2;;;1.4;;
6561;SDS011;3314;50.890;4.722;2022-07-06T11:50:10;8.2;;;1.4;;
6561;SDS011;3314;50.890;4.722;2022-07-06T11:52:06;7.4;;;1.3;;
6561;SDS011;3314;50.890;4.722;2022-07-06T11:54:08;8.5;;;1.0;;
6561;SDS011;3314;50.890;4.722;2022-07-06T11:56:08;9.3;;;1.5;;
6561;SDS011;3314;50.890;4.722;2022-07-06T11:58:08;8.4;;;1.0;;
6561;SDS011;3314;50.890;4.722;2022-07-06T12:00:10;10.8;;;1.4;;
6561;SDS011;3314;50.890;4.722;2022-07-06T12:02:10;9.3;;;1.6;;
6561;SDS011;3314;50.890;4.722;2022-07-06T12:04:10;10.2;;;1.3;;
6561;SDS011;3314;50.890;4.722;2022-07-06T12:06:14;8.0;;;1.3;;
6561;SDS011;3314;50.890;4.722;2022-07-06T12:08:03;8.2;;;1.4;;
6561;SDS011;3314;50.890;4.722;2022-07-06T12:10:03;7.8;;;1.2;;
6561;SDS011;3314;50.890;4.722;2022-07-06T12:12:04;8.3;;;1.1;;
6561;SDS011;3314;50.890;4.722;2022-07-06T12:14:13;7.5;;;1.4;;
6561;SDS011;3314;50.890;4.722;2022-07-06T12:16:08;6.4;;;0.9;;
6561;SDS011;3314;50.890;4.722;2022-07-06T12:18:08;8.5;;;1.2;;
6561;SDS011;3314;50.890;4.722;2022-07-06T12:20:08;9.2;;;1.2;;
6561;SDS011;3314;50.890;4.722;2022-07-06T12:22:08;9.5;;;1.3;;
6561;SDS011;3314;50.890;4.722;2022-07-06T12:24:09;9.8;;;1.4;;
6561;SDS011;3314;50.890;4.722;2022-07-06T12:26:09;8.4;;;1.2;;
6561;SDS011;3314;50.890;4.722;2022-07-06T12:28:21;7.6;;;1.4;;
6561;SDS011;3314;50.890;4.722;2022-07-06T12:30:09;8.9;;;1.2;;
6561;SDS011;3314;50.890;4.722;2022-07-06T12:32:13;9.0;;;1.6;;
6561;SDS011;3314;50.890;4.722;2022-07-06T12:34:02;9.8;;;1.5;;
6561;SDS011;3314;50.890;4.722;2022-07-06T12:36:09;7.5;;;1.6;;
6561;SDS011;3314;50.890;4.722;2022-07-06T12:38:09;11.3;;;1.7;;
6561;SDS011;3314;50.890;4.722;2022-07-06T12:40:11;8.7;;;1.4;;
6561;SDS011;3314;50.890;4.722;2022-07-06T12:42:01;9.1;;;1.5;;
6561;SDS011;3314;50.890;4.722;2022-07-06T12:44:03;10.3;;;1.7;;
6561;SDS011;3314;50.890;4.722;2022-07-06T12:46:40;9.2;;;1.6;;
6561;SDS011;3314;50.890;4.722;2022-07-06T12:48:05;9.9;;;1.8;;
6561;SDS011;3314;50.890;4.722;2022-07-06T12:50:06;8.3;;;1.7;;